createdAt,value
2023-02-19T00:01:24.432Z,4.75
2023-02-19T00:03:52.803Z,5.30
2023-02-19T00:06:19.661Z,3.20
2023-02-19T00:08:46.424Z,9.00
2023-02-19T00:11:15.270Z,7.65
2023-02-19T00:13:43.259Z,7.15
2023-02-19T00:16:14.701Z,9.00
2023-02-19T00:18:41.630Z,7.18
2023-02-19T00:21:09.102Z,6.10
2023-02-19T00:23:36.181Z,7.15
2023-02-19T00:26:17.673Z,5.18
2023-02-19T00:28:45.275Z,5.63
2023-02-19T00:31:23.552Z,5.53
2023-02-19T00:33:52.289Z,7.68
2023-02-19T00:36:19.093Z,4.18
2023-02-19T00:38:45.915Z,7.20
2023-02-19T00:41:22.199Z,6.80
2023-02-19T00:44:02.661Z,6.28
2023-02-19T00:46:37.307Z,6.05
2023-02-19T00:49:04.911Z,5.30
2023-02-19T00:51:33.623Z,6.35
2023-02-19T00:54:00.417Z,5.63
2023-02-19T00:56:27.173Z,7.28
2023-02-19T00:58:53.895Z,8.98
2023-02-19T01:01:20.967Z,10.27
2023-02-19T01:03:47.793Z,4.63
2023-02-19T01:06:16.014Z,6.30
2023-02-19T01:08:43.015Z,6.85
2023-02-19T01:11:10.103Z,7.40
2023-02-19T01:13:37.050Z,11.00
2023-02-19T01:16:07.561Z,6.90
2023-02-19T01:18:34.457Z,10.35
2023-02-19T01:21:05.459Z,8.90
2023-02-19T01:23:32.180Z,6.50
2023-02-19T01:25:58.824Z,6.75
2023-02-19T01:28:25.418Z,6.45
2023-02-19T01:30:52.109Z,8.13
2023-02-19T01:33:18.780Z,9.13
2023-02-19T01:35:45.537Z,8.07
2023-02-19T01:38:12.204Z,9.25
2023-02-19T01:40:38.795Z,13.18
2023-02-19T01:43:06.601Z,7.57
2023-02-19T01:45:34.616Z,8.48
2023-02-19T01:48:11.864Z,7.57
2023-02-19T01:50:46.476Z,7.95
2023-02-19T01:53:13.705Z,6.45
2023-02-19T01:55:40.413Z,5.78
2023-02-19T01:58:07.084Z,5.88
2023-02-19T02:00:33.879Z,10.70
2023-02-19T02:03:00.550Z,10.13
2023-02-19T02:05:42.422Z,8.68
2023-02-19T02:08:27.624Z,8.63
2023-02-19T02:10:54.319Z,4.03
2023-02-19T02:13:21.015Z,7.38
2023-02-19T02:15:51.162Z,4.90
2023-02-19T02:18:49.114Z,8.57
2023-02-19T02:21:48.082Z,5.75
2023-02-19T02:24:20.469Z,5.35
2023-02-19T02:27:12.729Z,5.35
2023-02-19T02:29:45.507Z,8.82
2023-02-19T02:32:14.363Z,8.35
2023-02-19T02:34:54.128Z,5.05
2023-02-19T02:37:20.902Z,7.78
2023-02-19T02:39:47.590Z,4.75
2023-02-19T02:42:29.552Z,6.05
2023-02-19T02:45:15.762Z,9.63
2023-02-19T02:47:53.325Z,6.25
2023-02-19T02:50:47.262Z,7.45
2023-02-19T02:53:37.029Z,5.93
2023-02-19T02:56:03.830Z,7.07
2023-02-19T02:58:30.729Z,7.53
2023-02-19T03:01:27.773Z,8.80
2023-02-19T03:04:01.418Z,5.93
2023-02-19T03:06:29.962Z,9.90
2023-02-19T03:09:08.721Z,9.45
2023-02-19T03:12:07.666Z,6.53
2023-02-19T03:14:56.795Z,13.70
2023-02-19T03:18:06.695Z,7.90
2023-02-19T03:20:34.697Z,6.40
2023-02-19T03:23:01.412Z,4.82
2023-02-19T03:25:50.777Z,4.60
2023-02-19T03:28:18.146Z,7.75
2023-02-19T03:30:50.853Z,7.82
2023-02-19T03:33:19.858Z,6.65
2023-02-19T03:36:05.445Z,10.30
2023-02-19T03:38:44.943Z,8.63
2023-02-19T03:41:26.593Z,12.32
2023-02-19T03:43:57.999Z,9.48
2023-02-19T03:46:39.117Z,12.70
2023-02-19T03:49:15.794Z,5.18
2023-02-19T03:51:45.086Z,8.20
2023-02-19T03:54:41.537Z,4.72
2023-02-19T03:57:30.205Z,2.22
2023-02-19T04:00:27.368Z,3.67
2023-02-19T04:02:55.184Z,2.22
2023-02-19T04:05:23.237Z,6.25
2023-02-19T04:07:50.924Z,12.07
2023-02-19T04:10:17.796Z,9.25
2023-02-19T04:12:48.337Z,4.88
2023-02-19T04:15:17.757Z,9.02
2023-02-19T04:17:47.545Z,7.85
2023-02-19T04:20:14.277Z,9.55
2023-02-19T04:22:40.993Z,9.93
2023-02-19T04:25:07.896Z,10.80
2023-02-19T04:27:38.537Z,9.88
2023-02-19T04:30:06.506Z,20.23
2023-02-19T04:32:33.262Z,9.82
2023-02-19T04:34:59.906Z,11.65
2023-02-19T04:37:26.569Z,7.55
2023-02-19T04:39:53.355Z,6.00
2023-02-19T04:42:19.933Z,7.53
2023-02-19T04:44:46.575Z,6.07
2023-02-19T04:47:13.357Z,9.80
2023-02-19T04:49:40.093Z,12.82
2023-02-19T04:52:06.708Z,19.77
2023-02-19T04:54:33.509Z,15.85
2023-02-19T04:57:00.138Z,12.13
2023-02-19T04:59:26.788Z,11.88
2023-02-19T05:01:53.568Z,8.32
2023-02-19T05:04:20.220Z,11.68
2023-02-19T05:06:46.941Z,7.30
2023-02-19T05:09:13.683Z,26.45
2023-02-19T05:11:40.414Z,28.05
2023-02-19T05:14:07.149Z,20.98
2023-02-19T05:16:33.805Z,14.35
2023-02-19T05:19:00.557Z,13.82
2023-02-19T05:21:27.311Z,16.05
2023-02-19T05:23:54.150Z,16.33
2023-02-19T05:26:22.026Z,14.82
2023-02-19T05:28:50.489Z,11.73
2023-02-19T05:31:17.462Z,15.13
2023-02-19T05:33:45.719Z,15.57
2023-02-19T05:36:13.200Z,20.65
2023-02-19T05:38:40.474Z,14.50
2023-02-19T05:41:13.171Z,35.72
2023-02-19T05:43:40.192Z,22.30
2023-02-19T05:46:07.037Z,16.70
2023-02-19T05:48:33.969Z,18.77
2023-02-19T05:51:09.240Z,21.10
2023-02-19T05:53:36.276Z,19.65
